sensor_id;sensor_type;location;lat;lon;timestamp;pressure;altitude;pressure_sealevel;temperature;humidity
16793;BME280;8513;42.662;23.350;2022-08-21T00:00:23;94397.00;;;19.77;76.67
16793;BME280;8513;42.662;23.350;2022-08-21T00:03:02;94392.63;;;19.83;76.94
16793;BME280;8513;42.662;23.350;2022-08-21T00:05:29;94385.31;;;19.78;77.47
16793;BME280;8513;42.662;23.350;2022-08-21T00:07:55;94378.78;;;19.74;76.52
16793;BME280;8513;42.662;23.350;2022-08-21T00:10:20;94381.91;;;19.71;76.98
16793;BME280;8513;42.662;23.350;2022-08-21T00:12:46;94385.31;;;19.78;77.06
16793;BME280;8513;42.662;23.350;2022-08-21T00:15:16;94381.91;;;19.90;75.77
16793;BME280;8513;42.662;23.350;2022-08-21T00:17:41;94373.88;;;19.90;75.30
16793;BME280;8513;42.662;23.350;2022-08-21T00:20:08;94372.50;;;19.87;75.58
16793;BME280;8513;42.662;23.350;2022-08-21T00:22:35;94367.97;;;19.88;75.70
16793;BME280;8513;42.662;23.350;2022-08-21T00:25:02;94372.13;;;19.83;76.78
16793;BME280;8513;42.662;23.350;2022-08-21T00:27:28;94373.16;;;19.82;77.32
16793;BME280;8513;42.662;23.350;2022-08-21T00:29:54;94365.81;;;19.78;78.03
16793;BME280;8513;42.662;23.350;2022-08-21T00:32:24;94367.09;;;19.75;76.54
16793;BME280;8513;42.662;23.350;2022-08-21T00:34:50;94360.72;;;19.76;75.28
16793;BME280;8513;42.662;23.350;2022-08-21T00:37:16;94357.81;;;19.78;74.63
16793;BME280;8513;42.662;23.350;2022-08-21T00:39:42;94355.16;;;19.78;74.76
16793;BME280;8513;42.662;23.350;2022-08-21T00:42:08;94366.06;;;19.76;74.94
16793;BME280;8513;42.662;23.350;2022-08-21T00:44:34;94361.19;;;19.73;74.89
16793;BME280;8513;42.662;23.350;2022-08-21T00:47:00;94364.50;;;19.69;75.80
16793;BME280;8513;42.662;23.350;2022-08-21T00:49:25;94369.78;;;19.75;74.61
16793;BME280;8513;42.662;23.350;2022-08-21T00:51:53;94379.41;;;19.76;74.47
16793;BME280;8513;42.662;23.350;2022-08-21T00:54:22;94377.53;;;19.77;75.05
16793;BME280;8513;42.662;23.350;2022-08-21T00:56:52;94371.09;;;19.85;74.56
16793;BME280;8513;42.662;23.350;2022-08-21T00:59:20;94365.28;;;19.88;74.15
16793;BME280;8513;42.662;23.350;2022-08-21T01:01:47;94369.38;;;19.90;74.25
16793;BME280;8513;42.662;23.350;2022-08-21T01:04:12;94353.81;;;19.87;74.26
16793;BME280;8513;42.662;23.350;2022-08-21T01:06:38;94358.13;;;19.70;75.28
16793;BME280;8513;42.662;23.350;2022-08-21T01:09:03;94353.03;;;19.68;76.02
16793;BME280;8513;42.662;23.350;2022-08-21T01:11:30;94350.50;;;19.73;76.20
16793;BME280;8513;42.662;23.350;2022-08-21T01:13:55;94341.31;;;19.69;76.42
16793;BME280;8513;42.662;23.350;2022-08-21T01:16:21;94347.88;;;19.85;75.04
16793;BME280;8513;42.662;23.350;2022-08-21T01:18:48;94340.47;;;19.87;74.56
16793;BME280;8513;42.662;23.350;2022-08-21T01:21:18;94343.13;;;19.87;74.99
16793;BME280;8513;42.662;23.350;2022-08-21T01:23:46;94342.50;;;19.73;76.02
16793;BME280;8513;42.662;23.350;2022-08-21T01:26:13;94333.13;;;19.64;77.42
16793;BME280;8513;42.662;23.350;2022-08-21T01:28:44;94341.09;;;19.71;76.99
16793;BME280;8513;42.662;23.350;2022-08-21T01:31:12;94337.22;;;19.67;76.51
16793;BME280;8513;42.662;23.350;2022-08-21T01:33:39;94338.63;;;19.69;76.40
16793;BME280;8513;42.662;23.350;2022-08-21T01:36:04;94338.63;;;19.69;76.80
16793;BME280;8513;42.662;23.350;2022-08-21T01:38:30;94333.75;;;19.66;76.17
16793;BME280;8513;42.662;23.350;2022-08-21T01:40:56;94346.88;;;19.68;76.55
16793;BME280;8513;42.662;23.350;2022-08-21T01:43:21;94347.69;;;19.68;76.36
16793;BME280;8513;42.662;23.350;2022-08-21T01:45:46;94345.44;;;19.65;76.36
16793;BME280;8513;42.662;23.350;2022-08-21T01:48:12;94344.84;;;19.63;76.42
16793;BME280;8513;42.662;23.350;2022-08-21T01:50:38;94337.97;;;19.55;77.29
16793;BME280;8513;42.662;23.350;2022-08-21T01:53:04;94345.44;;;19.65;77.04
16793;BME280;8513;42.662;23.350;2022-08-21T01:55:29;94343.66;;;19.59;76.70
16793;BME280;8513;42.662;23.350;2022-08-21T01:57:55;94347.38;;;19.58;78.95
16793;BME280;8513;42.662;23.350;2022-08-21T02:00:21;94346.47;;;19.46;79.73
16793;BME280;8513;42.662;23.350;2022-08-21T02:02:50;94342.13;;;19.51;77.41
16793;BME280;8513;42.662;23.350;2022-08-21T02:05:17;94348.47;;;19.50;78.50
16793;BME280;8513;42.662;23.350;2022-08-21T02:07:47;94359.50;;;19.54;78.40
16793;BME280;8513;42.662;23.350;2022-08-21T02:10:15;94362.63;;;19.51;79.04
16793;BME280;8513;42.662;23.350;2022-08-21T02:12:41;94350.78;;;19.47;79.95
16793;BME280;8513;42.662;23.350;2022-08-21T02:15:07;94350.34;;;19.50;79.82
16793;BME280;8513;42.662;23.350;2022-08-21T02:17:41;94366.50;;;19.55;79.44
16793;BME280;8513;42.662;23.350;2022-08-21T02:20:07;94356.94;;;19.47;80.16
16793;BME280;8513;42.662;23.350;2022-08-21T02:22:33;94360.34;;;19.54;79.74
16793;BME280;8513;42.662;23.350;2022-08-21T02:24:58;94367.09;;;19.57;79.84
16793;BME280;8513;42.662;23.350;2022-08-21T02:27:25;94361.31;;;19.60;79.13
16793;BME280;8513;42.662;23.350;2022-08-21T02:29:50;94365.81;;;19.59;78.73
16793;BME280;8513;42.662;23.350;2022-08-21T02:32:16;94365.75;;;19.66;78.49
16793;BME280;8513;42.662;23.350;2022-08-21T02:34:41;94364.78;;;19.60;78.27
16793;BME280;8513;42.662;23.350;2022-08-21T02:37:07;94373.75;;;19.66;77.99
16793;BME280;8513;42.662;23.350;2022-08-21T02:39:32;94368.34;;;19.54;78.15
16793;BME280;8513;42.662;23.350;2022-08-21T02:41:57;94363.59;;;19.56;78.59
16793;BME280;8513;42.662;23.350;2022-08-21T02:44:23;94369.31;;;19.60;78.83
16793;BME280;8513;42.662;23.350;2022-08-21T02:46:48;94366.69;;;19.53;78.93
16793;BME280;8513;42.662;23.350;2022-08-21T02:49:14;94359.31;;;19.55;79.17
16793;BME280;8513;42.662;23.350;2022-08-21T02:51:39;94354.78;;;19.56;79.16
16793;BME280;8513;42.662;23.350;2022-08-21T02:54:05;94365.44;;;19.56;79.29
16793;BME280;8513;42.662;23.350;2022-08-21T02:56:30;94372.28;;;19.52;79.46
16793;BME280;8513;42.662;23.350;2022-08-21T02:58:56;94367.38;;;19.49;79.04
16793;BME280;8513;42.662;23.350;2022-08-21T03:01:21;94369.16;;;19.55;78.99
16793;BME280;8513;42.662;23.350;2022-08-21T03:03:47;94367.91;;;19.57;79.06
16793;BME280;8513;42.662;23.350;2022-08-21T03:06:15;94370.31;;;19.59;78.85
16793;BME280;8513;42.662;23.350;2022-08-21T03:08:42;94371.97;;;19.60;78.78
16793;BME280;8513;42.662;23.350;2022-08-21T03:11:11;94369.75;;;19.57;78.88
16793;BME280;8513;42.662;23.350;2022-08-21T03:13:37;94365.09;;;19.52;79.59
16793;BME280;8513;42.662;23.350;2022-08-21T03:16:04;94360.06;;;19.44;80.28
16793;BME280;8513;42.662;23.350;2022-08-21T03:18:29;94360.56;;;19.53;79.08
16793;BME280;8513;42.662;23.350;2022-08-21T03:20:55;94356.47;;;19.50;78.22
16793;BME280;8513;42.662;23.350;2022-08-21T03:23:21;94365.59;;;19.43;77.89
16793;BME280;8513;42.662;23.350;2022-08-21T03:25:47;94369.00;;;19.50;77.69
16793;BME280;8513;42.662;23.350;2022-08-21T03:28:17;94376.34;;;19.54;77.77
16793;BME280;8513;42.662;23.350;2022-08-21T03:30:44;94372.78;;;19.42;79.18
16793;BME280;8513;42.662;23.350;2022-08-21T03:33:10;94359.44;;;19.42;79.53
16793;BME280;8513;42.662;23.350;2022-08-21T03:35:36;94367.44;;;19.42;79.82
16793;BME280;8513;42.662;23.350;2022-08-21T03:38:02;94358.84;;;19.40;79.28
16793;BME280;8513;42.662;23.350;2022-08-21T03:40:28;94360.66;;;19.46;79.04
16793;BME280;8513;42.662;23.350;2022-08-21T03:42:53;94357.75;;;19.48;79.26
16793;BME280;8513;42.662;23.350;2022-08-21T03:45:19;94360.84;;;19.45;79.29
16793;BME280;8513;42.662;23.350;2022-08-21T03:47:57;94361.06;;;19.43;79.47
16793;BME280;8513;42.662;23.350;2022-08-21T03:50:25;94362.34;;;19.41;79.72
16793;BME280;8513;42.662;23.350;2022-08-21T03:52:51;94357.75;;;19.48;78.53
16793;BME280;8513;42.662;23.350;2022-08-21T03:55:17;94371.38;;;19.39;78.31
16793;BME280;8513;42.662;23.350;2022-08-21T03:57:42;94374.69;;;19.35;77.88
16793;BME280;8513;42.662;23.350;2022-08-21T04:00:10;94387.88;;;19.30;76.48
16793;BME280;8513;42.662;23.350;2022-08-21T04:02:38;94378.50;;;19.27;76.05
16793;BME280;8513;42.662;23.350;2022-08-21T04:05:04;94390.00;;;19.21;76.17
16793;BME280;8513;42.662;23.350;2022-08-21T04:07:30;94384.16;;;19.12;76.97
16793;BME280;8513;42.662;23.350;2022-08-21T04:09:55;94390.09;;;19.14;76.74
16793;BME280;8513;42.662;23.350;2022-08-21T04:12:21;94386.22;;;19.10;77.07
16793;BME280;8513;42.662;23.350;2022-08-21T04:14:46;94387.78;;;19.18;77.06
16793;BME280;8513;42.662;23.350;2022-08-21T04:17:12;94380.56;;;19.25;77.05
16793;BME280;8513;42.662;23.350;2022-08-21T04:19:37;94378.09;;;19.24;77.20
16793;BME280;8513;42.662;23.350;2022-08-21T04:22:03;94366.63;;;19.23;77.00
16793;BME280;8513;42.662;23.350;2022-08-21T04:24:29;94379.78;;;19.18;77.50
16793;BME280;8513;42.662;23.350;2022-08-21T04:26:54;94379.34;;;19.21;77.44
16793;BME280;8513;42.662;23.350;2022-08-21T04:29:20;94376.41;;;19.29;77.34
16793;BME280;8513;42.662;23.350;2022-08-21T04:31:45;94381.97;;;19.28;77.70
16793;BME280;8513;42.662;23.350;2022-08-21T04:34:11;94383.94;;;19.32;77.22
16793;BME280;8513;42.662;23.350;2022-08-21T04:36:37;94386.50;;;19.27;77.12
16793;BME280;8513;42.662;23.350;2022-08-21T04:39:02;94383.13;;;19.32;77.02
16793;BME280;8513;42.662;23.350;2022-08-21T04:41:28;94370.84;;;19.31;76.64
16793;BME280;8513;42.662;23.350;2022-08-21T04:43:54;94377.97;;;19.37;76.23
16793;BME280;8513;42.662;23.350;2022-08-21T04:46:21;94380.47;;;19.32;75.72
16793;BME280;8513;42.662;23.350;2022-08-21T04:48:46;94378.25;;;19.29;75.82
16793;BME280;8513;42.662;23.350;2022-08-21T04:51:18;94373.63;;;18.99;78.14
16793;BME280;8513;42.662;23.350;2022-08-21T04:53:50;94383.31;;;18.93;78.30
16793;BME280;8513;42.662;23.350;2022-08-21T04:56:24;94374.84;;;19.22;77.23
16793;BME280;8513;42.662;23.350;2022-08-21T04:58:52;94363.50;;;19.26;76.72
16793;BME280;8513;42.662;23.350;2022-08-21T05:01:21;94366.13;;;19.33;76.57
16793;BME280;8513;42.662;23.350;2022-08-21T05:03:49;94368.25;;;19.43;76.57
16793;BME280;8513;42.662;23.350;2022-08-21T05:06:16;94363.06;;;19.48;76.67
16793;BME280;8513;42.662;23.350;2022-08-21T05:08:43;94365.13;;;19.64;76.24
16793;BME280;8513;42.662;23.350;2022-08-21T05:11:09;94369.88;;;19.80;75.54
16793;BME280;8513;42.662;23.350;2022-08-21T05:13:35;94369.22;;;19.85;75.48
16793;BME280;8513;42.662;23.350;2022-08-21T05:16:01;94376.91;;;19.93;75.02
16793;BME280;8513;42.662;23.350;2022-08-21T05:18:26;94379.38;;;19.95;74.94
16793;BME280;8513;42.662;23.350;2022-08-21T05:20:52;94366.84;;;19.95;73.15
16793;BME280;8513;42.662;23.350;2022-08-21T05:23:17;94358.63;;;19.97;73.74
16793;BME280;8513;42.662;23.350;2022-08-21T05:25:43;94365.75;;;19.85;73.83
16793;BME280;8513;42.662;23.350;2022-08-21T05:28:09;94376.69;;;19.95;73.64
16793;BME280;8513;42.662;23.350;2022-08-21T05:30:36;94380.97;;;19.96;72.85
16793;BME280;8513;42.662;23.350;2022-08-21T05:33:04;94379.66;;;20.05;71.79
16793;BME280;8513;42.662;23.350;2022-08-21T05:35:30;94378.28;;;20.14;72.10
16793;BME280;8513;42.662;23.350;2022-08-21T05:37:56;94368.50;;;20.38;70.85
16793;BME280;8513;42.662;23.350;2022-08-21T05:40:22;94372.56;;;20.53;69.90
16793;BME280;8513;42.662;23.350;2022-08-21T05:42:51;94363.75;;;20.52;68.55
16793;BME280;8513;42.662;23.350;2022-08-21T05:45:17;94360.78;;;20.60;68.72
16793;BME280;8513;42.662;23.350;2022-08-21T05:47:42;94360.31;;;20.63;69.97
16793;BME280;8513;42.662;23.350;2022-08-21T05:50:08;94350.34;;;20.70;70.16
16793;BME280;8513;42.662;23.350;2022-08-21T05:52:33;94354.06;;;20.69;68.72
16793;BME280;8513;42.662;23.350;2022-08-21T05:54:59;94356.97;;;20.68;68.36
16793;BME280;8513;42.662;23.350;2022-08-21T05:57:24;94354.06;;;20.69;69.56
16793;BME280;8513;42.662;23.350;2022-08-21T05:59:50;94353.03;;;20.59;70.56
16793;BME280;8513;42.662;23.350;2022-08-21T06:02:21;94362.72;;;20.11;73.21
16793;BME280;8513;42.662;23.350;2022-08-21T06:04:47;94361.41;;;20.32;73.08
16793;BME280;8513;42.662;23.350;2022-08-21T06:07:12;94367.13;;;20.47;73.08
16793;BME280;8513;42.662;23.350;2022-08-21T06:09:38;94362.06;;;20.58;72.98
16793;BME280;8513;42.662;23.350;2022-08-21T06:12:08;94358.97;;;20.84;72.05
16793;BME280;8513;42.662;23.350;2022-08-21T06:14:35;94359.91;;;21.02;71.30
16793;BME280;8513;42.662;23.350;2022-08-21T06:17:08;94365.22;;;21.37;69.43
16793;BME280;8513;42.662;23.350;2022-08-21T06:19:34;94360.94;;;21.24;69.07
16793;BME280;8513;42.662;23.350;2022-08-21T06:22:00;94364.53;;;21.53;67.23
16793;BME280;8513;42.662;23.350;2022-08-21T06:24:25;94362.91;;;21.29;66.82
16793;BME280;8513;42.662;23.350;2022-08-21T06:26:52;94361.31;;;21.28;67.31
16793;BME280;8513;42.662;23.350;2022-08-21T06:29:18;94354.53;;;21.37;67.98
16793;BME280;8513;42.662;23.350;2022-08-21T06:31:46;94362.19;;;21.57;68.05
16793;BME280;8513;42.662;23.350;2022-08-21T06:34:11;94357.53;;;21.64;68.05
16793;BME280;8513;42.662;23.350;2022-08-21T06:36:38;94361.84;;;21.65;68.92
16793;BME280;8513;42.662;23.350;2022-08-21T06:39:03;94359.34;;;21.75;67.84
16793;BME280;8513;42.662;23.350;2022-08-21T06:41:29;94360.72;;;21.90;67.39
16793;BME280;8513;42.662;23.350;2022-08-21T06:43:55;94355.75;;;22.10;66.62
16793;BME280;8513;42.662;23.350;2022-08-21T06:46:25;94365.44;;;21.99;65.83
16793;BME280;8513;42.662;23.350;2022-08-21T06:48:51;94374.53;;;21.98;66.13
16793;BME280;8513;42.662;23.350;2022-08-21T06:51:17;94372.19;;;21.73;66.30
16793;BME280;8513;42.662;23.350;2022-08-21T06:53:42;94367.97;;;21.77;65.56
16793;BME280;8513;42.662;23.350;2022-08-21T06:56:07;94364.00;;;21.80;66.04
16793;BME280;8513;42.662;23.350;2022-08-21T06:58:33;94377.59;;;21.90;64.56
16793;BME280;8513;42.662;23.350;2022-08-21T07:00:59;94381.34;;;21.89;65.20
16793;BME280;8513;42.662;23.350;2022-08-21T07:03:30;94385.75;;;21.84;64.84
16793;BME280;8513;42.662;23.350;2022-08-21T07:05:56;94385.91;;;21.77;64.38
16793;BME280;8513;42.662;23.350;2022-08-21T07:08:24;94375.94;;;22.01;63.73
16793;BME280;8513;42.662;23.350;2022-08-21T07:10:50;94369.41;;;21.97;63.46
16793;BME280;8513;42.662;23.350;2022-08-21T07:13:16;94370.16;;;22.21;63.56
16793;BME280;8513;42.662;23.350;2022-08-21T07:15:42;94372.38;;;22.24;62.44
16793;BME280;8513;42.662;23.350;2022-08-21T07:18:08;94377.81;;;22.29;62.18
16793;BME280;8513;42.662;23.350;2022-08-21T07:20:34;94378.16;;;22.33;61.97
16793;BME280;8513;42.662;23.350;2022-08-21T07:23:03;94373.84;;;22.32;62.28
16793;BME280;8513;42.662;23.350;2022-08-21T07:25:30;94370.72;;;22.35;62.89
16793;BME280;8513;42.662;23.350;2022-08-21T07:27:55;94369.34;;;22.20;63.82
16793;BME280;8513;42.662;23.350;2022-08-21T07:30:21;94362.16;;;22.09;64.27
16793;BME280;8513;42.662;23.350;2022-08-21T07:32:47;94358.28;;;21.88;64.30
16793;BME280;8513;42.662;23.350;2022-08-21T07:35:14;94361.84;;;21.94;64.75
16793;BME280;8513;42.662;23.350;2022-08-21T07:37:40;94356.47;;;22.06;64.19
16793;BME280;8513;42.662;23.350;2022-08-21T07:40:06;94351.88;;;22.30;63.02
16793;BME280;8513;42.662;23.350;2022-08-21T07:42:31;94359.25;;;22.39;61.92
16793;BME280;8513;42.662;23.350;2022-08-21T07:44:57;94356.91;;;22.43;62.35
16793;BME280;8513;42.662;23.350;2022-08-21T07:47:22;94347.66;;;22.51;62.18
16793;BME280;8513;42.662;23.350;2022-08-21T07:49:48;94347.75;;;22.56;60.70
16793;BME280;8513;42.662;23.350;2022-08-21T07:52:14;94354.03;;;22.78;59.94
16793;BME280;8513;42.662;23.350;2022-08-21T07:54:39;94348.25;;;23.03;58.45
16793;BME280;8513;42.662;23.350;2022-08-21T07:57:04;94345.25;;;23.00;58.66
16793;BME280;8513;42.662;23.350;2022-08-21T07:59:30;94345.41;;;23.10;59.31
16793;BME280;8513;42.662;23.350;2022-08-21T08:01:55;94343.88;;;23.36;59.48
16793;BME280;8513;42.662;23.350;2022-08-21T08:04:21;94351.34;;;23.51;58.61
16793;BME280;8513;42.662;23.350;2022-08-21T08:06:47;94346.75;;;23.68;58.16
16793;BME280;8513;42.662;23.350;2022-08-21T08:09:12;94343.44;;;23.83;57.50
16793;BME280;8513;42.662;23.350;2022-08-21T08:11:40;94353.13;;;24.06;55.58
16793;BME280;8513;42.662;23.350;2022-08-21T08:14:08;94352.63;;;23.87;56.37
16793;BME280;8513;42.662;23.350;2022-08-21T08:16:33;94346.69;;;23.63;57.58
16793;BME280;8513;42.662;23.350;2022-08-21T08:18:58;94350.00;;;23.31;58.46
16793;BME280;8513;42.662;23.350;2022-08-21T08:21:24;94339.25;;;23.09;59.35
16793;BME280;8513;42.662;23.350;2022-08-21T08:23:50;94348.78;;;23.39;59.29
16793;BME280;8513;42.662;23.350;2022-08-21T08:26:15;94345.56;;;23.03;60.11
16793;BME280;8513;42.662;23.350;2022-08-21T08:28:41;94351.94;;;23.36;58.13
16793;BME280;8513;42.662;23.350;2022-08-21T08:31:07;94351.53;;;23.44;58.35
16793;BME280;8513;42.662;23.350;2022-08-21T08:33:32;94347.50;;;23.64;58.12
16793;BME280;8513;42.662;23.350;2022-08-21T08:35:58;94355.56;;;23.47;58.04
16793;BME280;8513;42.662;23.350;2022-08-21T08:38:24;94356.66;;;23.68;57.19
16793;BME280;8513;42.662;23.350;2022-08-21T08:41:13;94350.66;;;23.61;56.25
16793;BME280;8513;42.662;23.350;2022-08-21T08:43:41;94358.53;;;23.67;56.25
16793;BME280;8513;42.662;23.350;2022-08-21T08:46:13;94361.31;;;23.72;56.38
16793;BME280;8513;42.662;23.350;2022-08-21T08:48:53;94358.22;;;23.64;55.91
16793;BME280;8513;42.662;23.350;2022-08-21T08:54:33;94351.66;;;23.71;56.23
16793;BME280;8513;42.662;23.350;2022-08-21T08:57:02;94342.00;;;23.75;56.21
16793;BME280;8513;42.662;23.350;2022-08-21T08:59:39;94341.38;;;23.68;56.13
16793;BME280;8513;42.662;23.350;2022-08-21T09:02:05;94341.53;;;23.62;55.76
16793;BME280;8513;42.662;23.350;2022-08-21T09:04:31;94337.41;;;23.54;55.80
16793;BME280;8513;42.662;23.350;2022-08-21T09:07:34;94340.03;;;23.49;56.47
16793;BME280;8513;42.662;23.350;2022-08-21T09:28:23;94317.13;;;24.34;53.12
16793;BME280;8513;42.662;23.350;2022-08-21T09:30:49;94312.25;;;24.58;52.60
16793;BME280;8513;42.662;23.350;2022-08-21T09:33:16;94308.72;;;24.53;52.64
16793;BME280;8513;42.662;23.350;2022-08-21T09:35:52;94315.69;;;24.81;51.55
16793;BME280;8513;42.662;23.350;2022-08-21T09:38:33;94313.97;;;24.70;51.70
16793;BME280;8513;42.662;23.350;2022-08-21T09:41:06;94318.66;;;24.52;52.67
16793;BME280;8513;42.662;23.350;2022-08-21T09:43:33;94314.09;;;24.26;53.13
16793;BME280;8513;42.662;23.350;2022-08-21T09:46:20;94314.16;;;24.31;53.59
16793;BME280;8513;42.662;23.350;2022-08-21T09:48:49;94309.13;;;24.12;53.60
16793;BME280;8513;42.662;23.350;2022-08-21T09:51:18;94303.13;;;24.32;53.01
16793;BME280;8513;42.662;23.350;2022-08-21T09:53:48;94300.72;;;24.31;53.27
16793;BME280;8513;42.662;23.350;2022-08-21T10:01:49;94300.09;;;24.51;53.21
16793;BME280;8513;42.662;23.350;2022-08-21T10:04:20;94299.63;;;24.59;52.37
16793;BME280;8513;42.662;23.350;2022-08-21T10:06:45;94299.00;;;24.79;52.61
16793;BME280;8513;42.662;23.350;2022-08-21T10:09:17;94299.06;;;24.89;51.24
16793;BME280;8513;42.662;23.350;2022-08-21T10:12:21;94299.47;;;24.71;51.40
16793;BME280;8513;42.662;23.350;2022-08-21T10:14:59;94301.75;;;24.89;51.18
16793;BME280;8513;42.662;23.350;2022-08-21T10:17:37;94294.88;;;25.08;51.42
16793;BME280;8513;42.662;23.350;2022-08-21T10:20:18;94294.09;;;25.08;52.13
16793;BME280;8513;42.662;23.350;2022-08-21T10:26:04;94283.53;;;25.44;49.56
16793;BME280;8513;42.662;23.350;2022-08-21T10:28:39;94273.03;;;25.42;50.07
16793;BME280;8513;42.662;23.350;2022-08-21T10:31:19;94279.06;;;25.70;49.22
16793;BME280;8513;42.662;23.350;2022-08-21T10:36:46;94281.50;;;25.71;48.00
16793;BME280;8513;42.662;23.350;2022-08-21T10:44:39;94260.38;;;26.47;47.38
16793;BME280;8513;42.662;23.350;2022-08-21T10:55:22;94257.13;;;27.06;46.29
16793;BME280;8513;42.662;23.350;2022-08-21T10:57:59;94250.34;;;27.14;46.04
16793;BME280;8513;42.662;23.350;2022-08-21T11:00:53;94245.81;;;26.89;46.16
16793;BME280;8513;42.662;23.350;2022-08-21T11:03:43;94241.97;;;27.10;45.96
16793;BME280;8513;42.662;23.350;2022-08-21T11:06:17;94242.97;;;27.45;45.19
16793;BME280;8513;42.662;23.350;2022-08-21T11:08:45;94238.63;;;27.54;45.03
16793;BME280;8513;42.662;23.350;2022-08-21T11:17:41;94222.06;;;28.21;42.38
16793;BME280;8513;42.662;23.350;2022-08-21T11:20:33;94227.94;;;28.28;41.77
16793;BME280;8513;42.662;23.350;2022-08-21T11:23:12;94217.06;;;28.43;41.43
16793;BME280;8513;42.662;23.350;2022-08-21T11:25:47;94224.09;;;28.39;41.24
16793;BME280;8513;42.662;23.350;2022-08-21T11:28:37;94221.63;;;27.59;43.23
16793;BME280;8513;42.662;23.350;2022-08-21T11:36:41;94218.13;;;28.42;41.50
16793;BME280;8513;42.662;23.350;2022-08-21T11:39:26;94223.38;;;28.63;40.07
16793;BME280;8513;42.662;23.350;2022-08-21T11:42:19;94216.41;;;28.56;40.20
16793;BME280;8513;42.662;23.350;2022-08-21T11:50:30;94215.94;;;27.55;43.15
16793;BME280;8513;42.662;23.350;2022-08-21T11:53:17;94210.84;;;27.48;43.02
16793;BME280;8513;42.662;23.350;2022-08-21T11:55:53;94205.53;;;27.28;43.20
16793;BME280;8513;42.662;23.350;2022-08-21T11:58:31;94207.81;;;26.75;44.49
16793;BME280;8513;42.662;23.350;2022-08-21T12:01:01;94207.00;;;26.23;46.27
16793;BME280;8513;42.662;23.350;2022-08-21T12:03:36;94204.28;;;26.49;45.95
16793;BME280;8513;42.662;23.350;2022-08-21T12:06:12;94200.00;;;26.58;46.52
16793;BME280;8513;42.662;23.350;2022-08-21T12:08:45;94197.81;;;26.75;44.91
16793;BME280;8513;42.662;23.350;2022-08-21T12:11:24;94185.97;;;26.81;44.34
16793;BME280;8513;42.662;23.350;2022-08-21T12:13:55;94186.22;;;26.75;44.05
16793;BME280;8513;42.662;23.350;2022-08-21T12:19:34;94192.16;;;26.72;44.85
16793;BME280;8513;42.662;23.350;2022-08-21T12:22:10;94200.25;;;26.67;44.68
16793;BME280;8513;42.662;23.350;2022-08-21T12:24:39;94192.47;;;26.60;44.73
16793;BME280;8513;42.662;23.350;2022-08-21T12:30:05;94197.28;;;26.27;44.29
16793;BME280;8513;42.662;23.350;2022-08-21T12:35:19;94201.06;;;26.26;44.23
16793;BME280;8513;42.662;23.350;2022-08-21T12:37:50;94202.97;;;26.36;43.89
16793;BME280;8513;42.662;23.350;2022-08-21T12:40:25;94199.47;;;26.30;43.28
16793;BME280;8513;42.662;23.350;2022-08-21T12:42:54;94193.28;;;26.14;44.62
16793;BME280;8513;42.662;23.350;2022-08-21T12:50:48;94189.22;;;26.02;45.17
16793;BME280;8513;42.662;23.350;2022-08-21T12:53:28;94194.31;;;25.98;45.50
16793;BME280;8513;42.662;23.350;2022-08-21T12:55:55;94195.34;;;25.82;46.51
16793;BME280;8513;42.662;23.350;2022-08-21T12:58:26;94195.03;;;25.58;47.47
16793;BME280;8513;42.662;23.350;2022-08-21T13:01:01;94187.25;;;25.61;46.91
16793;BME280;8513;42.662;23.350;2022-08-21T13:03:27;94184.00;;;25.59;47.90
16793;BME280;8513;42.662;23.350;2022-08-21T13:05:53;94176.72;;;25.60;48.35
16793;BME280;8513;42.662;23.350;2022-08-21T13:08:21;94174.59;;;25.62;48.02
16793;BME280;8513;42.662;23.350;2022-08-21T13:10:56;94180.19;;;25.50;48.56
16793;BME280;8513;42.662;23.350;2022-08-21T13:13:25;94179.91;;;25.46;49.18
16793;BME280;8513;42.662;23.350;2022-08-21T13:16:00;94189.09;;;25.50;50.48
16793;BME280;8513;42.662;23.350;2022-08-21T13:18:29;94182.66;;;25.57;49.29
16793;BME280;8513;42.662;23.350;2022-08-21T13:21:11;94182.38;;;25.63;48.77
16793;BME280;8513;42.662;23.350;2022-08-21T13:23:38;94170.81;;;25.73;49.30
16793;BME280;8513;42.662;23.350;2022-08-21T13:26:33;94171.94;;;25.87;48.59
16793;BME280;8513;42.662;23.350;2022-08-21T13:29:07;94164.97;;;26.53;47.24
16793;BME280;8513;42.662;23.350;2022-08-21T13:31:32;94153.00;;;27.00;46.30
16793;BME280;8513;42.662;23.350;2022-08-21T13:33:58;94141.63;;;27.63;44.34
16793;BME280;8513;42.662;23.350;2022-08-21T13:36:29;94136.81;;;28.04;43.91
16793;BME280;8513;42.662;23.350;2022-08-21T13:38:55;94148.78;;;28.22;43.25
16793;BME280;8513;42.662;23.350;2022-08-21T13:41:24;94153.16;;;28.18;43.33
16793;BME280;8513;42.662;23.350;2022-08-21T13:44:05;94156.06;;;27.92;44.00
16793;BME280;8513;42.662;23.350;2022-08-21T13:46:34;94154.28;;;27.13;45.67
16793;BME280;8513;42.662;23.350;2022-08-21T13:49:01;94164.81;;;27.09;46.79
16793;BME280;8513;42.662;23.350;2022-08-21T13:51:28;94164.22;;;27.33;45.78
16793;BME280;8513;42.662;23.350;2022-08-21T13:53:54;94158.31;;;27.20;45.90
16793;BME280;8513;42.662;23.350;2022-08-21T13:56:40;94158.47;;;26.74;47.83
16793;BME280;8513;42.662;23.350;2022-08-21T13:59:06;94158.13;;;26.91;47.60
16793;BME280;8513;42.662;23.350;2022-08-21T14:01:50;94150.34;;;26.79;48.00
16793;BME280;8513;42.662;23.350;2022-08-21T14:04:20;94143.66;;;26.61;48.26
16793;BME280;8513;42.662;23.350;2022-08-21T14:06:47;94165.75;;;26.38;48.79
16793;BME280;8513;42.662;23.350;2022-08-21T14:09:28;94146.38;;;26.21;49.46
16793;BME280;8513;42.662;23.350;2022-08-21T14:11:58;94151.50;;;26.17;49.49
16793;BME280;8513;42.662;23.350;2022-08-21T14:14:30;94146.38;;;25.95;49.99
16793;BME280;8513;42.662;23.350;2022-08-21T14:16:59;94145.84;;;26.08;49.98
16793;BME280;8513;42.662;23.350;2022-08-21T14:19:34;94145.00;;;25.87;50.99
16793;BME280;8513;42.662;23.350;2022-08-21T14:22:21;94144.69;;;25.63;51.13
16793;BME280;8513;42.662;23.350;2022-08-21T14:24:47;94142.84;;;25.69;51.04
16793;BME280;8513;42.662;23.350;2022-08-21T14:27:17;94144.97;;;25.57;50.70